x

Ilm3 - 27 Miles Se Of Wrightsville Beach, Nc (41037) Weather Station

1:08am - Wed 31st Aug 2016 All times are EDT. -4 hours from GMT.

  • Wind
    7mph, 9mph gusts
  • Sea Temp 84°f
  • Air Temp 83°f
  • Sea Pressure 1016mb
  • Ilm3 - 27 Miles Se Of Wrightsville Beach, Nc
  • Ilm3 - 27 Miles Se Of Wrightsville Beach, Nc

More Historic Weather Station data

Upgrade to MSW Pro to gain access to the past 30 days of data for over 8000 Wavebouys and Weather Stations around the globe.

Join Pro

Comparision Forecast

View Surf forecast
   
Wed 08/31 1:08am 7 9 mph 1016mb 84f 83f
12:08am 9 13 mph 1016.1mb 84f 83f
Tue 08/30 11:08pm 9 13 mph 1016.3mb 84f 83f
10:08pm 7 9 mph 1016.2mb 84f 83f
9:08pm 11 16 mph 1015.6mb 84f 83f
8:08pm 11 13 mph 1015.2mb 84f 83f
7:08pm 13 18 mph 1014.6mb 84f 83f
6:08pm 9 13 mph 1014.9mb 84f 84f
5:08pm 9 11 mph 1015.4mb 84f 84f
4:08pm 4 9 mph 1015.8mb 84f 83f
3:08pm 9 13 mph 1016.2mb 83f 83f
2:08pm 11 16 mph 1016.7mb 83f 82f
12:08pm 18 22 mph 1017.2mb 83f 81f
11:08am 13 18 mph 1017.8mb 84f 80f
10:08am 9 13 mph 1018.2mb 84f 80f
9:08am 13 18 mph 1017.6mb 84f 80f
8:08am 13 18 mph 1016.8mb 84f 80f
7:08am 18 22 mph 1016.5mb 84f 80f
6:08am 18 22 mph 1016mb 84f 80f
5:08am 18 22 mph 1015.2mb 84f 80f
4:08am 13 20 mph 1016.1mb 84f 81f
3:08am 13 18 mph 1015.9mb 84f 81f
2:08am 11 18 mph 1016.9mb 84f 82f
1:08am 16 20 mph 1016.8mb 84f 82f
12:08am 18 22 mph 1017.3mb 84f 82f
Mon 08/29 11:08pm 16 20 mph 1017.1mb 84f 83f
10:08pm 11 16 mph 1017.3mb 84f 82f
9:08pm 11 18 mph 1017.2mb 84f 82f
8:08pm 16 20 mph 1017mb 84f 81f
7:08pm 13 18 mph 1016.8mb 84f 84f
6:08pm 11 16 mph 1017.1mb 84f 84f
5:08pm 9 13 mph 1016.8mb 84f 84f
4:08pm 7 11 mph 1017mb 84f 83f
3:08pm 11 16 mph 1017.5mb 83f 83f
2:08pm 11 18 mph 1018.3mb 83f 83f
1:08pm 13 18 mph 1018.3mb 83f 83f
12:08pm 11 16 mph 1018.4mb 83f 82f
11:08am 11 16 mph 1018.6mb 83f 82f
10:08am 13 18 mph 1018.5mb 83f 83f
9:08am 13 20 mph 1018.3mb 83f 83f
8:08am 13 18 mph 1018mb 83f 82f
7:08am 4 9 mph 1017.7mb 83f 78f
6:08am 13 18 mph 1017.5mb 83f 79f
5:08am 16 20 mph 1017.7mb 83f 78f
4:08am 18 22 mph 1017.8mb 83f 80f
3:08am 11 16 mph 1018.2mb 83f 81f
2:08am 13 20 mph 1018.2mb 83f 81f
1:08am 9 13 mph 1018.2mb 83f 83f
12:08am 11 18 mph 1018.3mb 83f 83f
Sun 08/28 11:08pm 11 16 mph 1018.3mb 83f 83f
10:08pm 13 18 mph 1018.5mb 83f 83f
9:08pm 16 20 mph 1018.2mb 83f 83f
8:08pm 16 20 mph 1017.7mb 84f 83f
7:08pm 16 20 mph 1017.7mb 84f 83f
6:08pm 13 20 mph 1017.8mb 84f 83f
5:08pm 13 18 mph 1018.2mb 84f 83f
4:08pm 16 20 mph 1018.5mb 84f 83f
3:08pm 11 16 mph 1019.3mb 84f 84f
2:08pm 16 20 mph 1019.3mb 84f 82f
1:08pm 16 20 mph 1020mb 83f 82f
12:08pm 13 20 mph 1020.3mb 83f 82f
11:08am 16 20 mph 1020.2mb 83f 82f
10:08am 16 20 mph 1019.9mb 83f 82f
9:08am 11 16 mph 1019.7mb 84f 83f
8:08am 13 18 mph 1019.5mb 84f 83f
7:08am 11 18 mph 1019mb 84f 82f
6:08am 11 16 mph 1018.6mb 84f 81f
5:08am 7 11 mph 1018.4mb 84f 81f
4:08am 9 13 mph 1018.5mb 84f 82f
3:08am 7 11 mph 1018.8mb 85f 82f
2:08am 4 9 mph 1019.1mb 85f 83f
1:08am 2 4 mph 1019.5mb 84f 83f
12:08am 4 7 mph 1019.6mb 84f 83f
Sat 08/27 11:08pm 2 7 mph 1019.8mb 85f 83f
10:08pm 7 11 mph 1019.8mb 85f 83f
9:08pm 4 9 mph 1019.2mb 85f 83f
8:08pm 7 11 mph 1017.8mb 85f 83f
7:08pm 9 13 mph 1017.2mb 85f 83f
6:08pm 9 13 mph 1017.5mb 85f 84f
5:08pm 7 11 mph 1018.1mb 85f 84f
4:08pm 7 11 mph 1018.4mb 85f 83f
3:08pm 7 11 mph 1018.7mb 84f 83f
2:08pm 7 11 mph 1019.3mb 85f 83f
1:08pm 7 11 mph 1019.6mb 84f 83f
12:08pm 7 11 mph 1019.8mb 84f 83f
11:08am 9 11 mph 1019.9mb 84f 83f
10:08am 9 11 mph 1019.8mb 84f 83f
9:08am 9 11 mph 1019.5mb 84f 83f
8:08am 7 11 mph 1019.3mb 84f 83f
7:08am 4 9 mph 1019mb 84f 82f
6:08am 4 7 mph 1018.6mb 84f 82f